Time;durP1;ratioP1;P1;durP2;ratioP2;P2;SDS_P1;SDS_P2;PMS_P1;PMS_P2;Temp;Humidity;BMP_temperature;BMP_pressure;BME280_temperature;BME280_humidity;BME280_pressure;Samples;Min_cycle;Max_cycle;Signal;HPM_P1;HPM_P2
2022/02/24 00:01:45;;;;;;;22.70;6.80;;;;;;;6.91;85.08;101534.22;5071557;28;20023;-71
2022/02/24 00:04:10;;;;;;;24.05;7.20;;;;;;;6.87;85.41;101537.59;5071388;28;20390;-71
2022/02/24 00:06:36;;;;;;;26.17;7.55;;;;;;;6.84;86.34;101533.13;5070362;28;20036;-71
2022/02/24 00:09:01;;;;;;;24.02;7.07;;;;;;;6.88;84.97;101524.50;5071176;28;20025;-69
2022/02/24 00:11:27;;;;;;;24.77;7.53;;;;;;;6.84;85.00;101514.72;5070949;28;20498;-70
2022/02/24 00:13:52;;;;;;;23.90;7.15;;;;;;;6.78;86.39;101523.31;5069332;28;20127;-70
2022/02/24 00:16:18;;;;;;;25.63;6.97;;;;;;;6.79;85.41;101524.22;5070446;28;20391;-71
2022/02/24 00:18:43;;;;;;;23.23;6.80;;;;;;;6.83;83.79;101518.22;5070796;28;20103;-71
2022/02/24 00:21:08;;;;;;;22.98;6.70;;;;;;;6.95;81.86;101504.56;5070934;28;20104;-70
2022/02/24 00:23:34;;;;;;;23.85;6.43;;;;;;;6.99;81.11;101511.69;5069723;28;20521;-71
2022/02/24 00:25:59;;;;;;;23.45;6.57;;;;;;;6.96;80.71;101514.22;5070301;28;20029;-71
2022/02/24 00:28:24;;;;;;;22.90;6.65;;;;;;;6.92;81.88;101497.47;5070562;28;20025;-71
2022/02/24 00:30:50;;;;;;;23.50;6.85;;;;;;;6.87;81.40;101499.06;5070421;28;20033;-71
2022/02/24 00:33:15;;;;;;;23.35;6.85;;;;;;;6.90;81.37;101506.16;5070780;28;20024;-71
2022/02/24 00:35:40;;;;;;;22.13;6.72;;;;;;;6.89;81.48;101505.25;5070209;28;20021;-71
2022/02/24 00:38:06;;;;;;;23.02;6.97;;;;;;;6.79;82.31;101492.69;5070915;28;20479;-71
2022/02/24 00:40:31;;;;;;;23.88;6.97;;;;;;;6.82;81.22;101499.78;5070658;28;20029;-72
2022/02/24 00:42:57;;;;;;;23.95;6.60;;;;;;;6.83;81.04;101496.28;5070126;28;20047;-71
2022/02/24 00:45:22;;;;;;;22.98;7.07;;;;;;;6.85;80.50;101490.25;5070602;28;20040;-72
2022/02/24 00:47:47;;;;;;;23.98;6.90;;;;;;;6.84;81.43;101492.81;5070344;28;20051;-71
2022/02/24 00:50:13;;;;;;;22.60;6.45;;;;;;;6.84;80.37;101490.19;5070631;28;20040;-71
2022/02/24 00:52:38;;;;;;;25.23;7.13;;;;;;;6.85;80.70;101490.25;5070834;28;20016;-71
2022/02/24 00:55:04;;;;;;;25.15;7.40;;;;;;;6.75;81.17;101494.31;5069766;28;20040;-71
2022/02/24 00:57:29;;;;;;;23.63;7.07;;;;;;;6.77;80.75;101473.34;5070539;28;20094;-71
2022/02/24 00:59:55;;;;;;;23.20;6.88;;;;;;;6.78;80.39;101473.38;5070767;28;20096;-71
2022/02/24 01:02:20;;;;;;;23.25;6.78;;;;;;;6.78;80.22;101464.63;5070469;28;20116;-71
2022/02/24 01:04:45;;;;;;;23.85;6.78;;;;;;;6.80;79.00;101460.28;5070101;28;20065;-71
2022/02/24 01:07:11;;;;;;;23.33;6.70;;;;;;;6.78;78.11;101467.25;5069603;28;20047;-71
2022/02/24 01:09:36;;;;;;;24.02;6.20;;;;;;;6.89;76.40;101464.97;5070192;28;20056;-71
2022/02/24 01:12:01;;;;;;;23.48;6.10;;;;;;;6.84;77.55;101459.53;5070394;28;20078;-71
2022/02/24 01:14:27;;;;;;;23.73;6.22;;;;;;;6.79;76.33;101459.41;5070473;28;20024;-71
2022/02/24 01:16:52;;;;;;;23.58;6.00;;;;;;;6.84;75.14;101450.78;5069900;28;20033;-71
2022/02/24 01:19:18;;;;;;;22.85;6.38;;;;;;;6.80;76.59;101442.81;5069808;28;20515;-71
2022/02/24 01:21:43;;;;;;;21.95;6.45;;;;;;;6.79;76.74;101443.63;5070335;28;20467;-71
2022/02/24 01:24:08;;;;;;;21.05;6.20;;;;;;;6.72;76.94;101435.53;5070275;28;20028;-71
2022/02/24 01:26:34;;;;;;;22.42;6.10;;;;;;;6.75;76.02;101441.75;5069859;28;20020;-70
2022/02/24 01:28:59;;;;;;;25.50;6.32;;;;;;;6.70;76.21;101432.88;5070415;28;20016;-71
2022/02/24 01:31:24;;;;;;;24.25;6.05;;;;;;;6.72;74.89;101420.66;5069672;28;20074;-70
2022/02/24 01:33:50;;;;;;;23.52;5.40;;;;;;;6.82;72.89;101411.31;5070081;28;20032;-70
2022/02/24 01:36:15;;;;;;;23.95;5.47;;;;;;;6.82;71.75;101411.31;5069337;28;20127;-70
2022/02/24 01:38:40;;;;;;;21.10;5.10;;;;;;;6.87;72.55;101393.91;5070202;28;20021;-72
2022/02/24 01:41:06;;;;;;;21.23;5.10;;;;;;;6.84;72.88;101398.22;5070067;28;20480;-70
2022/02/24 01:43:32;;;;;;;22.27;5.32;;;;;;;6.89;71.84;101399.25;5069935;28;20021;-70
2022/02/24 01:45:57;;;;;;;23.15;5.85;;;;;;;6.80;72.71;101387.63;5069679;28;20036;-70
2022/02/24 01:48:23;;;;;;;20.90;5.10;;;;;;;6.80;73.12;101386.72;5070102;28;20385;-69
2022/02/24 01:50:49;;;;;;;24.20;5.35;;;;;;;6.78;73.24;101388.41;5071758;28;20047;-71
2022/02/24 01:53:15;;;;;;;21.88;5.53;;;;;;;6.79;73.47;101377.06;5073787;28;20066;-70
2022/02/24 01:55:41;;;;;;;22.02;5.72;;;;;;;6.78;74.16;101377.91;5073077;28;20017;-71
2022/02/24 01:58:07;;;;;;;22.98;5.90;;;;;;;6.78;74.48;101364.75;5073793;28;20033;-70
2022/02/24 02:00:33;;;;;;;21.20;5.50;;;;;;;6.81;74.29;101372.72;5070490;28;20033;-71
2022/02/24 02:02:58;;;;;;;22.55;5.65;;;;;;;6.84;74.61;101364.03;5073519;28;20391;-71
2022/02/24 02:05:24;;;;;;;24.95;6.10;;;;;;;6.81;75.30;101362.22;5073223;28;20082;-70
2022/02/24 02:07:49;;;;;;;22.33;5.78;;;;;;;6.71;75.79;101360.19;5072964;28;20025;-71
2022/02/24 02:10:14;;;;;;;23.77;5.72;;;;;;;6.72;76.43;101362.84;5073377;28;20070;-69
2022/02/24 02:12:51;;;;;;;22.67;6.20;;;;;;;6.79;76.01;101353.41;5073363;28;20064;-70
2022/02/24 02:15:18;;;;;;;24.00;6.10;;;;;;;6.66;76.92;101354.81;5072824;28;20032;-70
2022/02/24 02:17:44;;;;;;;23.75;6.35;;;;;;;6.63;77.73;101339.84;5073143;28;20425;-70
2022/02/24 02:20:10;;;;;;;23.63;6.10;;;;;;;6.60;78.06;101334.50;5072808;28;20467;-71
2022/02/24 02:22:36;;;;;;;23.10;6.40;;;;;;;6.61;77.88;101324.88;5073646;28;20060;-70
2022/02/24 02:25:04;;;;;;;25.17;6.78;;;;;;;6.54;78.57;101326.44;5072398;28;20423;-71
2022/02/24 02:27:30;;;;;;;25.40;6.57;;;;;;;6.55;78.90;101322.97;5072719;28;20104;-70
2022/02/24 02:29:56;;;;;;;22.33;6.47;;;;;;;6.54;78.54;101323.81;5072652;28;20135;-70
2022/02/24 02:32:21;;;;;;;24.67;6.60;;;;;;;6.51;78.79;101320.19;5072975;28;20111;-70
2022/02/24 02:34:47;;;;;;;24.67;6.47;;;;;;;6.53;79.50;101319.41;5072655;28;20090;-71
2022/02/24 02:37:12;;;;;;;24.40;6.13;;;;;;;6.52;79.50;101316.72;5073198;28;20507;-70
2022/02/24 02:39:37;;;;;;;24.75;6.55;;;;;;;6.49;80.00;101316.66;5072739;28;20051;-70
2022/02/24 02:42:03;;;;;;;22.42;6.53;;;;;;;6.53;79.96;101313.28;5072399;28;20033;-69
2022/02/24 02:44:28;;;;;;;22.25;6.22;;;;;;;6.47;80.63;101307.84;5072827;28;20028;-69
2022/02/24 02:46:53;;;;;;;24.52;6.95;;;;;;;6.54;79.92;101308.06;5072208;28;20495;-71
2022/02/24 02:49:19;;;;;;;24.17;6.40;;;;;;;6.54;80.25;101313.31;5072391;28;20483;-71
2022/02/24 02:51:44;;;;;;;24.08;6.82;;;;;;;6.43;81.58;101301.59;5073085;28;20021;-70
2022/02/24 02:54:09;;;;;;;23.20;6.65;;;;;;;6.44;82.02;101300.78;5072145;28;20426;-70
2022/02/24 02:56:35;;;;;;;24.23;6.45;;;;;;;6.49;82.02;101301.78;5072464;28;20418;-69
2022/02/24 02:59:00;;;;;;;24.45;6.90;;;;;;;6.47;81.82;101295.59;5072551;28;20112;-70
2022/02/24 03:01:26;;;;;;;24.60;6.78;;;;;;;6.41;81.75;101293.69;5071045;28;20062;-70
2022/02/24 03:03:51;;;;;;;23.58;7.07;;;;;;;6.41;82.23;101287.56;5071480;28;20502;-70
2022/02/24 03:06:17;;;;;;;24.48;6.90;;;;;;;6.47;81.94;101289.47;5071876;28;20531;-71
2022/02/24 03:08:44;;;;;;;24.23;6.70;;;;;;;6.43;82.08;101277.97;5072087;28;20036;-71
2022/02/24 03:11:10;;;;;;;24.15;7.07;;;;;;;6.49;81.99;101279.88;5072617;28;20028;-70
2022/02/24 03:13:35;;;;;;;22.90;6.50;;;;;;;6.51;81.24;101278.16;5070991;28;20037;-71
2022/02/24 03:16:02;;;;;;;25.15;6.63;;;;;;;6.52;81.31;101274.72;5071599;28;20031;-70
2022/02/24 03:18:27;;;;;;;22.58;6.32;;;;;;;6.51;81.97;101265.94;5071825;28;20063;-70
2022/02/24 03:20:52;;;;;;;23.85;6.93;;;;;;;6.45;82.62;101261.41;5072148;28;20062;-71
2022/02/24 03:23:19;;;;;;;23.02;6.38;;;;;;;6.49;82.84;101264.13;5071870;28;20036;-71
2022/02/24 03:25:44;;;;;;;22.83;6.68;;;;;;;6.48;83.60;101257.06;5071848;28;20020;-71
2022/02/24 03:28:09;;;;;;;24.17;7.15;;;;;;;6.42;84.63;101252.53;5071948;28;20495;-71
2022/02/24 03:30:37;;;;;;;24.88;6.80;;;;;;;6.49;84.60;101253.63;5071539;28;20028;-72
2022/02/24 03:33:04;;;;;;;21.45;6.30;;;;;;;6.47;84.92;101255.31;5072242;28;20146;-71
2022/02/24 03:35:30;;;;;;;24.15;6.60;;;;;;;6.43;86.33;101241.19;5070742;28;20119;-71
2022/02/24 03:37:56;;;;;;;22.75;6.63;;;;;;;6.42;86.47;101242.94;5072085;28;20116;-71
2022/02/24 03:40:22;;;;;;;22.50;6.47;;;;;;;6.39;87.66;101236.69;5071841;28;20241;-71
2022/02/24 03:42:50;;;;;;;24.05;6.00;;;;;;;6.42;87.05;101229.81;5071218;28;20025;-71
2022/02/24 03:45:16;;;;;;;26.63;6.20;;;;;;;6.37;nan;101238.41;5071326;28;20103;-71
2022/02/24 03:47:41;;;;;;;23.80;6.30;;;;;;;6.43;87.52;101222.81;5071550;28;20115;-71
2022/02/24 03:50:08;;;;;;;22.83;6.43;;;;;;;6.44;87.94;101230.72;5071698;28;20482;-71
2022/02/24 03:52:33;;;;;;;26.33;7.03;;;;;;;6.33;90.11;101213.78;5071724;28;20035;-72
2022/02/24 03:54:59;;;;;;;23.98;6.50;;;;;;;6.36;89.14;101211.25;5070884;28;20025;-71
2022/02/24 03:57:24;;;;;;;24.23;6.25;;;;;;;6.38;89.61;101211.31;5071309;28;20036;-71
2022/02/24 03:59:50;;;;;;;22.60;6.50;;;;;;;6.37;89.74;101217.41;5071272;28;20025;-71
2022/02/24 04:02:15;;;;;;;23.13;6.53;;;;;;;6.29;91.48;101206.66;5071119;28;20032;-71
2022/02/24 04:04:42;;;;;;;22.63;6.07;;;;;;;6.33;90.90;101189.28;5071115;28;20032;-71
2022/02/24 04:07:07;;;;;;;22.52;6.50;;;;;;;6.31;91.28;101193.59;5071112;28;20074;-71
2022/02/24 04:09:32;;;;;;;24.90;6.60;;;;;;;6.41;90.36;101195.63;5071450;28;20471;-71
2022/02/24 04:11:58;;;;;;;24.35;6.32;;;;;;;6.34;91.00;101189.31;5070811;28;20036;-71
2022/02/24 04:14:23;;;;;;;21.92;6.05;;;;;;;6.38;89.73;101187.69;5071293;28;20032;-70
2022/02/24 04:16:50;;;;;;;22.40;6.03;;;;;;;6.34;90.29;101191.06;5070583;28;20051;-70
2022/02/24 04:19:15;;;;;;;25.80;6.88;;;;;;;6.34;91.02;101175.31;5070226;28;20475;-70
2022/02/24 04:21:40;;;;;;;24.23;6.40;;;;;;;6.27;92.64;101172.50;5071048;28;20035;-70
2022/02/24 04:24:06;;;;;;;25.13;6.45;;;;;;;6.29;92.17;101162.03;5071156;28;20075;-70
2022/02/24 04:26:33;;;;;;;24.10;6.70;;;;;;;6.28;92.35;101161.16;5070728;28;20090;-70
2022/02/24 04:29:00;;;;;;;24.48;6.70;;;;;;;6.31;92.03;101159.47;5070863;28;20430;-70
2022/02/24 04:31:25;;;;;;;24.50;6.53;;;;;;;6.24;92.43;101156.66;5069531;28;20454;-70
2022/02/24 04:33:51;;;;;;;23.98;6.57;;;;;;;6.27;91.97;101159.34;5070433;28;20067;-71
2022/02/24 04:36:16;;;;;;;23.38;6.00;;;;;;;6.23;92.88;101149.66;5070601;28;20028;-71
2022/02/24 04:38:42;;;;;;;24.65;6.47;;;;;;;6.30;92.15;101152.44;5070676;28;20024;-71
2022/02/24 04:41:08;;;;;;;22.08;5.70;;;;;;;6.27;92.19;101148.84;5067172;28;20032;-70
2022/02/24 04:43:33;;;;;;;23.13;6.18;;;;;;;6.33;92.13;101149.88;5069908;28;20037;-70
2022/02/24 04:45:59;;;;;;;24.23;6.10;;;;;;;6.32;92.24;101140.22;5070389;28;20386;-71
2022/02/24 04:48:24;;;;;;;24.30;6.13;;;;;;;6.30;92.55;101134.94;5070589;28;20035;-70
2022/02/24 04:50:50;;;;;;;23.92;6.05;;;;;;;6.28;92.28;101134.91;5070331;28;20025;-71
2022/02/24 04:53:16;;;;;;;22.15;5.38;;;;;;;6.32;92.41;101145.47;5070337;28;20039;-71
2022/02/24 04:55:42;;;;;;;24.17;5.60;;;;;;;6.34;92.02;101128.03;5070134;28;20032;-70
2022/02/24 04:58:08;;;;;;;23.17;5.80;;;;;;;6.28;93.50;101124.38;5070588;28;20025;-70
2022/02/24 05:00:33;;;;;;;23.38;5.65;;;;;;;6.30;93.53;101126.19;5070112;28;20021;-70
2022/02/24 05:02:58;;;;;;;24.05;5.95;;;;;;;6.30;93.48;101124.44;5070205;28;20020;-70
2022/02/24 05:05:24;;;;;;;21.90;5.60;;;;;;;6.33;92.69;101123.63;5069650;28;20530;-71
2022/02/24 05:07:49;;;;;;;22.92;5.50;;;;;;;6.36;92.23;101121.06;5069958;28;20035;-71
2022/02/24 05:10:15;;;;;;;24.67;5.60;;;;;;;6.36;92.09;101116.69;5070456;28;20020;-69
2022/02/24 05:12:40;;;;;;;21.92;5.22;;;;;;;6.38;92.00;101120.28;5070542;28;20529;-69
2022/02/24 05:15:06;;;;;;;22.23;5.45;;;;;;;6.32;93.07;101113.97;5068864;28;20033;-70
2022/02/24 05:17:33;;;;;;;22.55;5.25;;;;;;;6.31;92.39;101109.59;5068919;28;20056;-70
2022/02/24 05:20:00;;;;;;;22.75;5.45;;;;;;;6.37;91.98;101101.84;5069677;28;20055;-71
2022/02/24 05:22:25;;;;;;;24.10;5.95;;;;;;;6.35;92.14;101099.19;5070055;28;20092;-70
2022/02/24 05:24:51;;;;;;;23.17;5.60;;;;;;;6.37;91.81;101099.22;5072271;28;20016;-70
2022/02/24 05:27:17;;;;;;;25.02;6.10;;;;;;;6.31;92.64;101094.72;5074162;28;20051;-69
2022/02/24 05:29:42;;;;;;;25.63;5.97;;;;;;;6.33;92.20;101100.00;5074343;28;20364;-69
2022/02/24 05:32:07;;;;;;;23.75;5.57;;;;;;;6.36;91.20;101079.06;5073679;28;20032;-70
2022/02/24 05:34:33;;;;;;;24.52;5.47;;;;;;;6.38;91.17;101073.00;5073901;28;20061;-70
2022/02/24 05:36:58;;;;;;;24.33;5.80;;;;;;;6.34;91.89;101071.16;5073875;28;20027;-70
2022/02/24 05:39:23;;;;;;;23.42;5.53;;;;;;;6.35;90.39;101067.69;5074355;28;20025;-70
2022/02/24 05:41:49;;;;;;;25.20;5.50;;;;;;;6.43;89.63;101067.88;5073977;28;20024;-70
2022/02/24 05:44:14;;;;;;;24.80;5.45;;;;;;;6.41;89.52;101065.19;5073561;28;20170;-70
2022/02/24 05:46:40;;;;;;;24.52;5.22;;;;;;;6.40;89.16;101054.66;5073463;28;20043;-70
2022/02/24 05:49:06;;;;;;;22.58;5.70;;;;;;;6.43;88.87;101044.22;5074076;28;20056;-70
2022/02/24 05:51:31;;;;;;;22.55;5.35;;;;;;;6.50;87.48;101034.78;5073651;28;20467;-70
2022/02/24 05:53:56;;;;;;;21.35;5.18;;;;;;;6.41;89.32;101044.19;5073885;28;20028;-70
2022/02/24 05:56:22;;;;;;;23.55;5.78;;;;;;;6.38;89.79;101038.88;5072802;28;20438;-70
2022/02/24 05:58:47;;;;;;;24.13;5.40;;;;;;;6.33;90.04;101036.97;5074029;28;20029;-70
2022/02/24 06:01:13;;;;;;;23.63;5.50;;;;;;;6.35;90.02;101040.50;5073224;28;20071;-70
2022/02/24 06:03:38;;;;;;;22.60;5.28;;;;;;;6.33;89.43;101031.72;5073686;28;20024;-71
2022/02/24 06:06:04;;;;;;;23.50;5.68;;;;;;;6.27;90.36;101035.97;5073017;28;20020;-71
2022/02/24 06:08:29;;;;;;;24.10;5.75;;;;;;;6.34;89.32;101030.88;5073354;28;20029;-70
2022/02/24 06:10:54;;;;;;;23.08;5.32;;;;;;;6.38;88.64;101024.88;5073062;28;20060;-71
2022/02/24 06:13:20;;;;;;;23.38;5.55;;;;;;;6.34;88.39;101015.13;5073506;28;20024;-70
2022/02/24 06:15:45;;;;;;;20.40;5.00;;;;;;;6.34;88.02;101023.88;5072943;28;20028;-70
2022/02/24 06:18:16;;;;;;;22.52;5.15;;;;;;;6.36;87.51;101022.16;5073696;28;20059;-70
2022/02/24 06:20:41;;;;;;;21.90;4.90;;;;;;;6.34;87.53;101013.38;5073030;28;20043;-70
2022/02/24 06:23:07;;;;;;;22.52;5.05;;;;;;;6.33;87.48;101011.59;5072824;28;20052;-71
2022/02/24 06:25:32;;;;;;;21.55;4.75;;;;;;;6.30;86.80;101008.91;5073214;28;20032;-70
2022/02/24 06:27:58;;;;;;;20.10;5.10;;;;;;;6.31;87.98;101013.31;5073426;28;20054;-70
2022/02/24 06:30:24;;;;;;;23.35;5.38;;;;;;;6.35;86.68;100998.50;5072891;28;20463;-70
2022/02/24 06:32:50;;;;;;;24.00;4.85;;;;;;;6.33;86.57;100992.34;5072582;28;20028;-70
2022/02/24 06:35:15;;;;;;;22.83;4.88;;;;;;;6.29;87.29;100996.63;5072623;28;20050;-71
2022/02/24 06:37:45;;;;;;;22.60;4.85;;;;;;;6.38;85.62;100995.97;5073148;28;20032;-71
2022/02/24 06:40:12;;;;;;;20.85;4.70;;;;;;;6.39;85.64;100997.72;5070303;28;20112;-72
2022/02/24 06:42:37;;;;;;;20.98;4.60;;;;;;;6.36;85.32;100984.53;5072594;28;20027;-71
2022/02/24 06:45:03;;;;;;;19.58;4.65;;;;;;;6.35;84.52;100983.66;5072035;28;20024;-72
2022/02/24 06:47:29;;;;;;;20.65;4.47;;;;;;;6.34;84.47;101002.00;5072723;28;20063;-72
2022/02/24 06:49:54;;;;;;;21.77;4.65;;;;;;;6.36;84.18;100984.53;5072654;28;20020;-72
2022/02/24 06:52:19;;;;;;;20.83;4.90;;;;;;;6.35;84.08;100983.66;5070776;28;20036;-71
2022/02/24 06:54:45;;;;;;;21.27;4.63;;;;;;;6.32;84.65;100983.59;5072526;28;20024;-72
2022/02/24 06:57:10;;;;;;;22.13;4.63;;;;;;;6.32;84.47;100993.19;5072407;28;20498;-72
2022/02/24 06:59:37;;;;;;;21.10;4.85;;;;;;;6.36;84.28;100989.78;5072524;28;20434;-72
2022/02/24 07:02:04;;;;;;;23.77;5.10;;;;;;;6.34;84.67;100981.88;5072540;28;20028;-71
2022/02/24 07:04:29;;;;;;;21.23;4.88;;;;;;;6.32;84.95;100983.59;5072540;28;20492;-71
2022/02/24 07:06:57;;;;;;;23.73;5.22;;;;;;;6.22;87.82;100986.84;5071755;28;20052;-71
2022/02/24 07:09:24;;;;;;;21.77;4.47;;;;;;;6.08;87.75;100970.75;5070725;28;20115;-72
2022/02/24 07:11:49;;;;;;;21.38;4.50;;;;;;;5.93;89.66;100971.22;5072049;28;20419;-72
2022/02/24 07:14:14;;;;;;;20.52;4.30;;;;;;;5.99;88.33;100957.41;5072008;28;20060;-73
2022/02/24 07:16:40;;;;;;;20.70;4.10;;;;;;;5.91;88.00;100965.94;5072083;28;20099;-71
2022/02/24 07:19:05;;;;;;;21.38;4.70;;;;;;;5.98;87.22;100956.50;5071966;28;20036;-72
2022/02/24 07:21:31;;;;;;;22.30;4.72;;;;;;;6.02;87.16;100968.84;5072143;28;20027;-72
2022/02/24 07:23:56;;;;;;;21.45;4.68;;;;;;;6.11;86.22;100965.56;5071364;28;20029;-72
2022/02/24 07:26:22;;;;;;;21.90;4.70;;;;;;;6.09;87.03;100951.53;5071483;28;20012;-72
2022/02/24 07:28:47;;;;;;;23.88;5.40;;;;;;;6.12;86.64;100951.59;5072092;28;20491;-71
2022/02/24 07:31:12;;;;;;;19.88;4.70;;;;;;;6.14;85.82;100957.75;5072308;28;20036;-72
2022/02/24 07:33:38;;;;;;;20.25;4.78;;;;;;;6.20;84.41;100957.91;5071598;28;20368;-72
2022/02/24 07:36:03;;;;;;;20.75;4.40;;;;;;;6.19;84.37;100950.91;5071460;28;20028;-72
2022/02/24 07:38:29;;;;;;;21.08;4.53;;;;;;;6.21;84.22;100943.06;5071835;28;20029;-73
2022/02/24 07:40:54;;;;;;;19.20;4.50;;;;;;;6.22;83.49;100939.59;5071590;28;20050;-72
2022/02/24 07:43:19;;;;;;;20.77;4.63;;;;;;;6.24;83.95;100954.50;5071965;28;20040;-73
2022/02/24 07:45:45;;;;;;;19.83;4.55;;;;;;;6.28;83.56;100951.09;5070893;28;20539;-73
2022/02/24 07:48:10;;;;;;;21.20;4.72;;;;;;;6.29;83.05;100946.72;5069247;28;20082;-73
2022/02/24 07:50:35;;;;;;;20.13;4.20;;;;;;;6.35;82.91;100951.25;5071125;28;20051;-72
2022/02/24 07:53:02;;;;;;;20.77;4.50;;;;;;;6.23;83.70;100950.13;5070800;28;20360;-72
2022/02/24 07:55:28;;;;;;;19.23;4.40;;;;;;;6.30;83.80;100935.38;5069250;28;20495;-72
2022/02/24 07:57:54;;;;;;;20.60;4.38;;;;;;;6.17;83.87;100936.81;5070728;28;20024;-73
2022/02/24 08:00:19;;;;;;;20.95;4.65;;;;;;;6.15;83.79;100937.66;5070974;28;20028;-72
2022/02/24 08:02:45;;;;;;;21.38;4.55;;;;;;;6.19;83.70;100922.00;5070546;28;20036;-72
2022/02/24 08:05:11;;;;;;;19.23;4.15;;;;;;;6.25;83.20;100926.53;5070942;28;20024;-72
2022/02/24 08:07:37;;;;;;;21.92;4.45;;;;;;;6.18;83.91;100914.97;5070772;28;20028;-73
2022/02/24 08:10:06;;;;;;;22.35;4.35;;;;;;;6.27;82.88;100917.81;5070120;28;20024;-72
2022/02/24 08:12:44;;;;;;;20.88;4.60;;;;;;;6.29;83.03;100920.47;5070671;28;20021;-72
2022/02/24 08:15:16;;;;;;;19.67;4.07;;;;;;;6.39;81.13;100900.56;5069752;28;20094;-72
2022/02/24 08:17:43;;;;;;;22.58;4.50;;;;;;;6.41;81.57;100910.25;5070395;28;20060;-72
2022/02/24 08:20:10;;;;;;;19.35;4.30;;;;;;;6.35;81.63;100904.88;5070526;28;20032;-72
2022/02/24 08:22:37;;;;;;;20.40;4.15;;;;;;;6.41;80.89;100898.88;5069680;28;20467;-72
2022/02/24 08:25:05;;;;;;;18.02;4.00;;;;;;;6.40;80.60;100883.97;5069854;28;20036;-72
2022/02/24 08:27:31;;;;;;;20.38;4.10;;;;;;;6.50;81.01;100893.81;5070182;28;20050;-72
2022/02/24 08:29:57;;;;;;;21.08;4.22;;;;;;;6.53;79.68;100882.50;5069998;28;20036;-71
2022/02/24 08:32:23;;;;;;;20.92;4.45;;;;;;;6.66;79.29;100873.16;5067689;28;20016;-72
2022/02/24 08:34:49;;;;;;;20.13;4.32;;;;;;;6.76;77.83;100877.72;5068695;28;20027;-72
2022/02/24 08:37:14;;;;;;;17.90;4.00;;;;;;;6.77;78.01;100871.59;5070344;28;20025;-72
2022/02/24 08:39:40;;;;;;;21.30;4.30;;;;;;;6.77;78.11;100874.22;5070636;28;20102;-71
2022/02/24 08:42:05;;;;;;;21.48;4.20;;;;;;;6.84;76.86;100863.00;5070592;28;20021;-71
2022/02/24 08:44:31;;;;;;;21.08;4.30;;;;;;;6.82;77.02;100864.72;5070460;28;20035;-71
2022/02/24 08:46:56;;;;;;;20.75;4.50;;;;;;;6.98;77.86;100861.53;5069444;28;20124;-71
2022/02/24 08:49:21;;;;;;;20.90;4.15;;;;;;;7.13;76.49;100865.28;5070520;28;20035;-71
2022/02/24 08:51:47;;;;;;;19.55;4.15;;;;;;;7.21;75.87;100862.81;5070432;28;20044;-71
2022/02/24 08:54:14;;;;;;;20.88;4.20;;;;;;;7.21;76.34;100855.81;5069173;28;20032;-72
2022/02/24 08:56:40;;;;;;;19.50;3.70;;;;;;;7.28;73.95;100848.91;5070039;28;20021;-71
2022/02/24 08:59:06;;;;;;;21.88;4.57;;;;;;;7.26;74.74;100846.25;5070143;28;20386;-71
2022/02/24 09:01:31;;;;;;;20.08;3.88;;;;;;;7.35;73.91;100849.91;5070213;28;20112;-71
2022/02/24 09:03:57;;;;;;;20.20;4.00;;;;;;;7.34;73.71;100851.69;5070192;28;20123;-71
2022/02/24 09:06:22;;;;;;;19.73;4.30;;;;;;;7.41;73.09;100829.88;5069669;28;20083;-72
2022/02/24 09:08:47;;;;;;;20.63;3.95;;;;;;;7.37;73.69;100843.84;5070191;28;20143;-71
2022/02/24 09:11:13;;;;;;;18.95;4.10;;;;;;;7.31;75.03;100827.91;5069860;28;20078;-72
2022/02/24 09:13:41;;;;;;;22.92;4.60;;;;;;;7.36;74.25;100825.41;5070615;28;20029;-72
2022/02/24 09:16:08;;;;;;;20.77;4.20;;;;;;;7.34;73.31;100812.22;5070229;28;20029;-72
2022/02/24 09:18:33;;;;;;;20.15;4.22;;;;;;;7.30;74.78;100811.28;5070491;28;20028;-71
2022/02/24 09:20:59;;;;;;;19.52;3.90;;;;;;;7.39;73.09;100794.75;5069965;28;20078;-72
2022/02/24 09:23:24;;;;;;;19.25;3.95;;;;;;;7.56;72.52;100797.69;5069741;28;20044;-72
2022/02/24 09:25:50;;;;;;;19.30;3.75;;;;;;;7.78;71.94;100784.84;5069571;28;20115;-72
2022/02/24 09:28:15;;;;;;;22.23;3.92;;;;;;;8.13;70.75;100784.47;5069718;28;20046;-73
2022/02/24 09:30:41;;;;;;;21.77;4.45;;;;;;;8.34;70.17;100784.75;5067966;28;20068;-72
2022/02/24 09:33:06;;;;;;;21.50;4.22;;;;;;;8.47;67.78;100762.09;5068446;28;20046;-72
2022/02/24 09:35:33;;;;;;;20.80;4.22;;;;;;;8.59;67.78;100778.91;5067759;28;20052;-72
2022/02/24 09:37:58;;;;;;;21.08;4.25;;;;;;;8.54;68.36;100769.19;5069529;28;20021;-72
2022/02/24 09:40:25;;;;;;;19.60;3.95;;;;;;;8.50;67.81;100795.50;5069889;28;20028;-73
2022/02/24 09:42:51;;;;;;;20.17;4.00;;;;;;;8.51;68.38;100770.91;5069808;28;20029;-72
2022/02/24 09:45:17;;;;;;;21.30;4.50;;;;;;;8.48;69.81;100755.09;5069333;28;20401;-72
2022/02/24 09:47:43;;;;;;;20.08;4.30;;;;;;;8.44;69.26;100755.88;5070192;28;20159;-71
2022/02/24 09:50:09;;;;;;;20.80;3.97;;;;;;;8.42;68.16;100742.69;5069793;28;20048;-72
2022/02/24 09:52:34;;;;;;;20.55;4.10;;;;;;;8.52;69.50;100728.78;5069934;28;20067;-71
2022/02/24 09:55:00;;;;;;;20.85;4.30;;;;;;;8.73;68.20;100717.56;5069272;28;20494;-71
2022/02/24 09:57:25;;;;;;;18.98;3.53;;;;;;;8.73;66.76;100745.69;5068327;28;20479;-72
2022/02/24 09:59:51;;;;;;;20.33;3.85;;;;;;;8.74;66.83;100736.91;5069177;28;20040;-72
2022/02/24 10:02:16;;;;;;;17.88;3.55;;;;;;;8.72;67.24;100733.38;5067129;28;20024;-72
2022/02/24 10:05:04;;;;;;;17.80;3.47;;;;;;;8.74;67.68;100715.84;5069923;28;20360;-71
2022/02/24 10:07:29;;;;;;;17.73;3.33;;;;;;;8.87;66.72;100716.84;5069518;28;20033;-71
2022/02/24 10:09:54;;;;;;;18.75;3.65;;;;;;;9.26;67.00;100718.03;5069729;28;20074;-71
2022/02/24 10:12:20;;;;;;;16.42;3.30;;;;;;;9.51;63.20;100718.19;5074007;28;20028;-71
2022/02/24 10:14:45;;;;;;;21.48;3.78;;;;;;;9.51;63.55;100690.06;5074342;28;20052;-72
2022/02/24 10:17:15;;;;;;;19.00;3.55;;;;;;;9.70;62.86;100683.16;5073429;28;20056;-70
2022/02/24 10:19:43;;;;;;;16.63;3.35;;;;;;;9.89;61.70;100670.03;5071655;28;20056;-71
2022/02/24 10:22:09;;;;;;;16.80;3.30;;;;;;;9.91;60.72;100673.56;5072603;28;20368;-71
2022/02/24 10:24:35;;;;;;;14.75;3.13;;;;;;;10.30;60.40;100666.66;5072806;28;20040;-72
2022/02/24 10:27:39;;;;;;;18.67;3.35;;;;;;;10.49;60.17;100649.13;5072486;28;20028;-72
2022/02/24 10:30:04;;;;;;;18.73;3.33;;;;;;;10.88;58.25;100649.13;5072052;28;20094;-71
2022/02/24 10:32:38;;;;;;;20.58;3.25;;;;;;;11.23;57.35;100620.03;5070306;28;20108;-73
2022/02/24 10:35:31;;;;;;;18.75;3.35;;;;;;;11.15;58.45;100642.94;5070428;28;20040;-72
2022/02/24 10:37:56;;;;;;;19.98;3.40;;;;;;;11.02;57.44;100643.84;5070503;28;20032;-72
2022/02/24 10:40:22;;;;;;;19.08;3.58;;;;;;;11.29;56.55;100642.94;5071852;28;20017;-73
2022/02/24 10:42:48;;;;;;;19.40;3.40;;;;;;;11.44;55.44;100650.84;5071701;28;20031;-72
2022/02/24 10:45:17;;;;;;;20.23;3.67;;;;;;;11.62;55.87;100619.91;5071021;28;20032;-73
2022/02/24 10:47:55;;;;;;;18.08;3.30;;;;;;;12.16;55.86;100615.28;5069250;28;20506;-72
2022/02/24 10:50:41;;;;;;;17.15;3.20;;;;;;;12.54;53.57;100600.88;5072327;28;20024;-72
2022/02/24 10:53:06;;;;;;;17.48;3.22;;;;;;;11.99;53.67;100606.53;5072298;28;20070;-72
2022/02/24 10:55:31;;;;;;;16.23;2.95;;;;;;;11.83;54.03;100616.31;5072083;28;20024;-72
2022/02/24 10:58:06;;;;;;;17.52;3.05;;;;;;;12.20;54.33;100605.53;5072660;28;20028;-72
2022/02/24 11:00:32;;;;;;;18.33;3.15;;;;;;;12.43;53.40;100597.44;5072573;28;20052;-72
2022/02/24 11:02:57;;;;;;;15.38;3.05;;;;;;;12.26;52.49;100605.50;5072407;28;20052;-72
2022/02/24 11:05:23;;;;;;;15.80;2.67;;;;;;;12.34;53.64;100576.31;5071912;28;20040;-72
2022/02/24 11:07:49;;;;;;;17.83;2.80;;;;;;;12.51;52.41;100585.00;5072304;28;20028;-72
2022/02/24 11:10:15;;;;;;;17.33;2.97;;;;;;;12.71;51.76;100576.00;5072044;28;20020;-72
2022/02/24 11:12:40;;;;;;;14.48;2.80;;;;;;;12.73;51.77;100577.75;5071998;28;20031;-72
2022/02/24 11:15:07;;;;;;;15.68;2.80;;;;;;;12.68;50.95;100597.25;5071987;28;20029;-72
2022/02/24 11:17:32;;;;;;;16.98;3.00;;;;;;;12.60;52.00;100567.28;5071975;28;20028;-72
2022/02/24 11:19:58;;;;;;;16.30;3.05;;;;;;;12.62;53.20;100574.31;5072481;28;20036;-72